sensor_id;sensor_type;location;lat;lon;timestamp;P1;durP1;ratioP1;P2;durP2;ratioP2
16775;SDS011;8505;49.456;8.164;2022-08-24T00:01:13;4.80;;;3.67;;
16775;SDS011;8505;49.456;8.164;2022-08-24T00:03:43;8.07;;;3.90;;
16775;SDS011;8505;49.456;8.164;2022-08-24T00:06:12;5.45;;;3.60;;
16775;SDS011;8505;49.456;8.164;2022-08-24T00:08:43;7.05;;;3.90;;
16775;SDS011;8505;49.456;8.164;2022-08-24T00:11:13;7.80;;;3.60;;
16775;SDS011;8505;49.456;8.164;2022-08-24T00:13:41;5.65;;;3.90;;
16775;SDS011;8505;49.456;8.164;2022-08-24T00:16:10;6.07;;;3.97;;
16775;SDS011;8505;49.456;8.164;2022-08-24T00:18:37;5.93;;;3.90;;
16775;SDS011;8505;49.456;8.164;2022-08-24T00:21:06;6.05;;;3.97;;
16775;SDS011;8505;49.456;8.164;2022-08-24T00:23:34;6.07;;;3.83;;
16775;SDS011;8505;49.456;8.164;2022-08-24T00:26:02;7.30;;;3.78;;
16775;SDS011;8505;49.456;8.164;2022-08-24T00:28:32;6.00;;;3.70;;
16775;SDS011;8505;49.456;8.164;2022-08-24T00:31:00;4.88;;;3.70;;
16775;SDS011;8505;49.456;8.164;2022-08-24T00:33:30;5.90;;;3.97;;
16775;SDS011;8505;49.456;8.164;2022-08-24T00:35:58;4.40;;;3.70;;
16775;SDS011;8505;49.456;8.164;2022-08-24T00:38:27;5.32;;;3.30;;
16775;SDS011;8505;49.456;8.164;2022-08-24T00:40:55;7.15;;;3.90;;
16775;SDS011;8505;49.456;8.164;2022-08-24T00:43:24;5.43;;;3.92;;
16775;SDS011;8505;49.456;8.164;2022-08-24T00:45:59;6.63;;;3.95;;
16775;SDS011;8505;49.456;8.164;2022-08-24T00:48:36;9.38;;;4.18;;
16775;SDS011;8505;49.456;8.164;2022-08-24T00:51:12;5.82;;;4.13;;
16775;SDS011;8505;49.456;8.164;2022-08-24T00:53:45;10.68;;;3.70;;
16775;SDS011;8505;49.456;8.164;2022-08-24T00:56:18;8.02;;;4.28;;
16775;SDS011;8505;49.456;8.164;2022-08-24T00:58:49;6.75;;;3.85;;
16775;SDS011;8505;49.456;8.164;2022-08-24T01:01:23;5.85;;;3.80;;
16775;SDS011;8505;49.456;8.164;2022-08-24T01:03:53;6.22;;;4.13;;
16775;SDS011;8505;49.456;8.164;2022-08-24T01:06:23;6.70;;;4.22;;
16775;SDS011;8505;49.456;8.164;2022-08-24T01:08:51;7.38;;;4.00;;
16775;SDS011;8505;49.456;8.164;2022-08-24T01:11:22;10.68;;;4.10;;
16775;SDS011;8505;49.456;8.164;2022-08-24T01:13:56;5.47;;;3.90;;
16775;SDS011;8505;49.456;8.164;2022-08-24T01:16:25;6.70;;;3.97;;
16775;SDS011;8505;49.456;8.164;2022-08-24T01:19:11;9.45;;;3.63;;
16775;SDS011;8505;49.456;8.164;2022-08-24T01:22:02;6.25;;;4.40;;
16775;SDS011;8505;49.456;8.164;2022-08-24T01:24:40;5.60;;;3.95;;
16775;SDS011;8505;49.456;8.164;2022-08-24T01:27:12;8.15;;;4.93;;
16775;SDS011;8505;49.456;8.164;2022-08-24T01:29:44;7.78;;;4.57;;
16775;SDS011;8505;49.456;8.164;2022-08-24T01:32:13;7.05;;;4.18;;
16775;SDS011;8505;49.456;8.164;2022-08-24T01:34:40;7.18;;;4.35;;
16775;SDS011;8505;49.456;8.164;2022-08-24T01:37:09;7.65;;;4.30;;
16775;SDS011;8505;49.456;8.164;2022-08-24T01:39:38;7.55;;;4.90;;
16775;SDS011;8505;49.456;8.164;2022-08-24T01:42:08;6.25;;;4.53;;
16775;SDS011;8505;49.456;8.164;2022-08-24T01:44:37;8.20;;;4.70;;
16775;SDS011;8505;49.456;8.164;2022-08-24T01:47:06;6.95;;;4.53;;
16775;SDS011;8505;49.456;8.164;2022-08-24T01:49:36;8.20;;;4.80;;
16775;SDS011;8505;49.456;8.164;2022-08-24T01:52:07;7.45;;;5.07;;
16775;SDS011;8505;49.456;8.164;2022-08-24T01:54:37;6.65;;;4.63;;
16775;SDS011;8505;49.456;8.164;2022-08-24T01:57:10;8.50;;;4.90;;
16775;SDS011;8505;49.456;8.164;2022-08-24T01:59:41;7.97;;;4.93;;
16775;SDS011;8505;49.456;8.164;2022-08-24T02:02:10;8.90;;;4.97;;
16775;SDS011;8505;49.456;8.164;2022-08-24T02:04:41;7.72;;;4.70;;
16775;SDS011;8505;49.456;8.164;2022-08-24T02:07:09;6.07;;;4.60;;
16775;SDS011;8505;49.456;8.164;2022-08-24T02:09:38;8.37;;;4.97;;
16775;SDS011;8505;49.456;8.164;2022-08-24T02:12:06;6.97;;;4.55;;
16775;SDS011;8505;49.456;8.164;2022-08-24T02:14:36;8.40;;;4.60;;
16775;SDS011;8505;49.456;8.164;2022-08-24T02:17:04;6.97;;;4.82;;
16775;SDS011;8505;49.456;8.164;2022-08-24T02:19:34;6.68;;;4.65;;
16775;SDS011;8505;49.456;8.164;2022-08-24T02:22:02;6.13;;;4.70;;
16775;SDS011;8505;49.456;8.164;2022-08-24T02:24:31;7.97;;;4.70;;
16775;SDS011;8505;49.456;8.164;2022-08-24T02:26:59;6.90;;;4.60;;
16775;SDS011;8505;49.456;8.164;2022-08-24T02:29:27;8.10;;;4.55;;
16775;SDS011;8505;49.456;8.164;2022-08-24T02:31:56;5.97;;;4.43;;
16775;SDS011;8505;49.456;8.164;2022-08-24T02:34:24;5.82;;;4.20;;
16775;SDS011;8505;49.456;8.164;2022-08-24T02:36:52;7.13;;;4.30;;
16775;SDS011;8505;49.456;8.164;2022-08-24T02:39:20;6.22;;;4.38;;
16775;SDS011;8505;49.456;8.164;2022-08-24T02:41:47;7.82;;;4.45;;
16775;SDS011;8505;49.456;8.164;2022-08-24T02:44:17;7.55;;;4.40;;
16775;SDS011;8505;49.456;8.164;2022-08-24T02:46:45;5.35;;;3.50;;
16775;SDS011;8505;49.456;8.164;2022-08-24T02:49:14;5.17;;;3.50;;
16775;SDS011;8505;49.456;8.164;2022-08-24T02:51:43;6.10;;;3.60;;
16775;SDS011;8505;49.456;8.164;2022-08-24T02:54:14;5.15;;;3.30;;
16775;SDS011;8505;49.456;8.164;2022-08-24T02:56:43;7.20;;;3.80;;
16775;SDS011;8505;49.456;8.164;2022-08-24T02:59:11;6.45;;;3.53;;
16775;SDS011;8505;49.456;8.164;2022-08-24T03:01:40;5.15;;;3.63;;
16775;SDS011;8505;49.456;8.164;2022-08-24T03:04:08;8.93;;;3.92;;
16775;SDS011;8505;49.456;8.164;2022-08-24T03:06:38;5.05;;;3.53;;
16775;SDS011;8505;49.456;8.164;2022-08-24T03:09:06;4.60;;;3.88;;
16775;SDS011;8505;49.456;8.164;2022-08-24T03:11:34;5.43;;;3.72;;
16775;SDS011;8505;49.456;8.164;2022-08-24T03:14:03;7.03;;;3.80;;
16775;SDS011;8505;49.456;8.164;2022-08-24T03:16:31;7.93;;;4.00;;
16775;SDS011;8505;49.456;8.164;2022-08-24T03:18:58;6.63;;;4.50;;
16775;SDS011;8505;49.456;8.164;2022-08-24T03:21:27;9.70;;;4.40;;
16775;SDS011;8505;49.456;8.164;2022-08-24T03:23:56;6.43;;;4.53;;
16775;SDS011;8505;49.456;8.164;2022-08-24T03:26:24;7.35;;;4.60;;
16775;SDS011;8505;49.456;8.164;2022-08-24T03:28:52;6.65;;;4.90;;
16775;SDS011;8505;49.456;8.164;2022-08-24T03:31:20;6.97;;;4.90;;
16775;SDS011;8505;49.456;8.164;2022-08-24T03:33:47;7.28;;;4.90;;
16775;SDS011;8505;49.456;8.164;2022-08-24T03:36:15;8.05;;;5.15;;
16775;SDS011;8505;49.456;8.164;2022-08-24T03:38:43;7.40;;;4.47;;
16775;SDS011;8505;49.456;8.164;2022-08-24T03:41:12;8.02;;;5.13;;
16775;SDS011;8505;49.456;8.164;2022-08-24T03:43:40;6.28;;;5.10;;
16775;SDS011;8505;49.456;8.164;2022-08-24T03:46:16;8.15;;;5.10;;
16775;SDS011;8505;49.456;8.164;2022-08-24T03:48:46;8.10;;;4.97;;
16775;SDS011;8505;49.456;8.164;2022-08-24T03:51:15;7.07;;;4.97;;
16775;SDS011;8505;49.456;8.164;2022-08-24T03:53:45;9.85;;;5.47;;
16775;SDS011;8505;49.456;8.164;2022-08-24T03:56:14;8.05;;;4.88;;
16775;SDS011;8505;49.456;8.164;2022-08-24T03:58:43;7.88;;;4.80;;
16775;SDS011;8505;49.456;8.164;2022-08-24T04:01:12;9.05;;;5.22;;
16775;SDS011;8505;49.456;8.164;2022-08-24T04:03:43;9.02;;;5.22;;
16775;SDS011;8505;49.456;8.164;2022-08-24T04:06:13;8.23;;;5.10;;
16775;SDS011;8505;49.456;8.164;2022-08-24T04:08:42;8.18;;;5.03;;
16775;SDS011;8505;49.456;8.164;2022-08-24T04:11:11;6.75;;;4.50;;
16775;SDS011;8505;49.456;8.164;2022-08-24T04:13:41;7.10;;;4.88;;
16775;SDS011;8505;49.456;8.164;2022-08-24T04:16:09;7.72;;;4.72;;
16775;SDS011;8505;49.456;8.164;2022-08-24T04:18:43;8.90;;;5.13;;
16775;SDS011;8505;49.456;8.164;2022-08-24T04:21:14;6.93;;;5.05;;
16775;SDS011;8505;49.456;8.164;2022-08-24T04:23:43;9.50;;;5.35;;
16775;SDS011;8505;49.456;8.164;2022-08-24T04:26:13;8.20;;;5.22;;
16775;SDS011;8505;49.456;8.164;2022-08-24T04:29:03;10.50;;;5.10;;
16775;SDS011;8505;49.456;8.164;2022-08-24T04:31:33;7.30;;;5.28;;
16775;SDS011;8505;49.456;8.164;2022-08-24T04:34:01;9.02;;;5.45;;
16775;SDS011;8505;49.456;8.164;2022-08-24T04:36:29;7.38;;;5.10;;
16775;SDS011;8505;49.456;8.164;2022-08-24T04:38:57;8.23;;;5.28;;
16775;SDS011;8505;49.456;8.164;2022-08-24T04:41:26;7.78;;;4.75;;
16775;SDS011;8505;49.456;8.164;2022-08-24T04:43:57;8.40;;;5.10;;
16775;SDS011;8505;49.456;8.164;2022-08-24T04:46:27;8.50;;;5.40;;
16775;SDS011;8505;49.456;8.164;2022-08-24T04:48:55;9.10;;;5.20;;
16775;SDS011;8505;49.456;8.164;2022-08-24T04:51:24;8.23;;;5.35;;
16775;SDS011;8505;49.456;8.164;2022-08-24T04:53:54;8.05;;;5.38;;
16775;SDS011;8505;49.456;8.164;2022-08-24T04:56:22;7.80;;;4.95;;
16775;SDS011;8505;49.456;8.164;2022-08-24T04:58:51;6.75;;;5.10;;
16775;SDS011;8505;49.456;8.164;2022-08-24T05:01:21;6.93;;;5.20;;
16775;SDS011;8505;49.456;8.164;2022-08-24T05:03:52;9.10;;;5.10;;
16775;SDS011;8505;49.456;8.164;2022-08-24T05:06:22;7.85;;;5.00;;
16775;SDS011;8505;49.456;8.164;2022-08-24T05:08:51;8.52;;;5.05;;
16775;SDS011;8505;49.456;8.164;2022-08-24T05:11:19;7.83;;;5.23;;
16775;SDS011;8505;49.456;8.164;2022-08-24T05:13:50;8.25;;;5.35;;
16775;SDS011;8505;49.456;8.164;2022-08-24T05:16:19;7.20;;;4.80;;
16775;SDS011;8505;49.456;8.164;2022-08-24T05:18:47;8.25;;;5.18;;
16775;SDS011;8505;49.456;8.164;2022-08-24T05:21:17;7.35;;;5.30;;
16775;SDS011;8505;49.456;8.164;2022-08-24T05:23:46;8.23;;;5.13;;
16775;SDS011;8505;49.456;8.164;2022-08-24T05:26:15;8.02;;;5.30;;
16775;SDS011;8505;49.456;8.164;2022-08-24T05:28:44;9.18;;;4.97;;
16775;SDS011;8505;49.456;8.164;2022-08-24T05:31:14;8.32;;;4.90;;
16775;SDS011;8505;49.456;8.164;2022-08-24T05:33:43;8.98;;;5.07;;
16775;SDS011;8505;49.456;8.164;2022-08-24T05:36:14;7.53;;;5.32;;
16775;SDS011;8505;49.456;8.164;2022-08-24T05:38:45;6.90;;;5.20;;
16775;SDS011;8505;49.456;8.164;2022-08-24T05:41:13;8.98;;;5.10;;
16775;SDS011;8505;49.456;8.164;2022-08-24T05:43:40;7.13;;;5.30;;
16775;SDS011;8505;49.456;8.164;2022-08-24T05:46:08;6.88;;;5.32;;
16775;SDS011;8505;49.456;8.164;2022-08-24T05:48:36;8.25;;;5.30;;
16775;SDS011;8505;49.456;8.164;2022-08-24T05:51:05;7.88;;;5.15;;
16775;SDS011;8505;49.456;8.164;2022-08-24T05:53:34;9.35;;;5.00;;
16775;SDS011;8505;49.456;8.164;2022-08-24T05:56:05;8.40;;;5.22;;
16775;SDS011;8505;49.456;8.164;2022-08-24T05:58:34;7.30;;;4.93;;
16775;SDS011;8505;49.456;8.164;2022-08-24T06:01:04;9.45;;;4.75;;
16775;SDS011;8505;49.456;8.164;2022-08-24T06:03:33;7.90;;;4.90;;
16775;SDS011;8505;49.456;8.164;2022-08-24T06:06:01;8.55;;;5.00;;
16775;SDS011;8505;49.456;8.164;2022-08-24T06:08:30;7.90;;;5.03;;
16775;SDS011;8505;49.456;8.164;2022-08-24T06:10:58;7.15;;;5.20;;
16775;SDS011;8505;49.456;8.164;2022-08-24T06:13:28;8.93;;;4.90;;
16775;SDS011;8505;49.456;8.164;2022-08-24T06:16:01;6.50;;;4.60;;
16775;SDS011;8505;49.456;8.164;2022-08-24T06:18:46;7.17;;;4.90;;
16775;SDS011;8505;49.456;8.164;2022-08-24T06:21:17;7.40;;;5.00;;
16775;SDS011;8505;49.456;8.164;2022-08-24T06:23:46;8.40;;;5.32;;
16775;SDS011;8505;49.456;8.164;2022-08-24T06:26:14;7.32;;;4.85;;
16775;SDS011;8505;49.456;8.164;2022-08-24T06:29:01;6.28;;;4.80;;
16775;SDS011;8505;49.456;8.164;2022-08-24T06:31:29;7.40;;;4.72;;
16775;SDS011;8505;49.456;8.164;2022-08-24T06:34:05;6.93;;;4.80;;
16775;SDS011;8505;49.456;8.164;2022-08-24T06:36:33;7.07;;;4.70;;
16775;SDS011;8505;49.456;8.164;2022-08-24T06:39:00;8.50;;;5.03;;
16775;SDS011;8505;49.456;8.164;2022-08-24T06:41:31;5.57;;;4.43;;
16775;SDS011;8505;49.456;8.164;2022-08-24T06:43:59;6.55;;;4.30;;
16775;SDS011;8505;49.456;8.164;2022-08-24T06:46:28;5.88;;;4.40;;
16775;SDS011;8505;49.456;8.164;2022-08-24T06:48:58;6.38;;;4.70;;
16775;SDS011;8505;49.456;8.164;2022-08-24T06:51:26;7.95;;;4.50;;
16775;SDS011;8505;49.456;8.164;2022-08-24T06:53:55;6.80;;;4.35;;
16775;SDS011;8505;49.456;8.164;2022-08-24T06:56:23;6.40;;;4.10;;
16775;SDS011;8505;49.456;8.164;2022-08-24T06:58:51;5.70;;;4.50;;
16775;SDS011;8505;49.456;8.164;2022-08-24T07:01:21;5.65;;;3.80;;
16775;SDS011;8505;49.456;8.164;2022-08-24T07:03:52;5.78;;;4.00;;
16775;SDS011;8505;49.456;8.164;2022-08-24T07:06:21;7.95;;;3.65;;
16775;SDS011;8505;49.456;8.164;2022-08-24T07:08:50;8.15;;;4.10;;
16775;SDS011;8505;49.456;8.164;2022-08-24T07:11:18;8.40;;;3.78;;
16775;SDS011;8505;49.456;8.164;2022-08-24T07:13:47;7.60;;;3.83;;
16775;SDS011;8505;49.456;8.164;2022-08-24T07:16:17;7.43;;;4.00;;
16775;SDS011;8505;49.456;8.164;2022-08-24T07:18:45;8.98;;;3.72;;
16775;SDS011;8505;49.456;8.164;2022-08-24T07:21:17;9.15;;;3.70;;
16775;SDS011;8505;49.456;8.164;2022-08-24T07:23:45;6.97;;;4.00;;
16775;SDS011;8505;49.456;8.164;2022-08-24T07:26:14;7.45;;;3.72;;
16775;SDS011;8505;49.456;8.164;2022-08-24T07:28:47;9.40;;;3.42;;
16775;SDS011;8505;49.456;8.164;2022-08-24T07:31:15;7.82;;;3.10;;
16775;SDS011;8505;49.456;8.164;2022-08-24T07:33:43;7.65;;;3.00;;
16775;SDS011;8505;49.456;8.164;2022-08-24T07:36:11;7.32;;;3.17;;
16775;SDS011;8505;49.456;8.164;2022-08-24T07:38:50;6.15;;;3.03;;
16775;SDS011;8505;49.456;8.164;2022-08-24T07:41:18;4.85;;;2.70;;
16775;SDS011;8505;49.456;8.164;2022-08-24T07:44:06;8.65;;;2.90;;
16775;SDS011;8505;49.456;8.164;2022-08-24T07:46:35;7.82;;;2.78;;
16775;SDS011;8505;49.456;8.164;2022-08-24T07:49:03;8.70;;;2.78;;
16775;SDS011;8505;49.456;8.164;2022-08-24T07:51:44;7.57;;;2.95;;
16775;SDS011;8505;49.456;8.164;2022-08-24T07:54:14;7.13;;;2.72;;
16775;SDS011;8505;49.456;8.164;2022-08-24T07:56:42;14.27;;;3.05;;
16775;SDS011;8505;49.456;8.164;2022-08-24T07:59:10;8.07;;;2.92;;
16775;SDS011;8505;49.456;8.164;2022-08-24T08:01:39;11.00;;;3.00;;
16775;SDS011;8505;49.456;8.164;2022-08-24T08:04:07;12.70;;;3.30;;
16775;SDS011;8505;49.456;8.164;2022-08-24T08:06:35;12.05;;;2.60;;
16775;SDS011;8505;49.456;8.164;2022-08-24T08:09:03;12.95;;;3.30;;
16775;SDS011;8505;49.456;8.164;2022-08-24T08:11:32;5.88;;;2.65;;
16775;SDS011;8505;49.456;8.164;2022-08-24T08:14:00;11.85;;;3.08;;
16775;SDS011;8505;49.456;8.164;2022-08-24T08:16:28;13.02;;;3.10;;
16775;SDS011;8505;49.456;8.164;2022-08-24T08:18:56;12.38;;;3.20;;
16775;SDS011;8505;49.456;8.164;2022-08-24T08:21:42;8.60;;;2.77;;
16775;SDS011;8505;49.456;8.164;2022-08-24T08:24:28;12.10;;;2.93;;
16775;SDS011;8505;49.456;8.164;2022-08-24T08:26:57;14.02;;;2.90;;
16775;SDS011;8505;49.456;8.164;2022-08-24T08:29:25;14.23;;;2.90;;
16775;SDS011;8505;49.456;8.164;2022-08-24T08:31:53;16.80;;;2.83;;
16775;SDS011;8505;49.456;8.164;2022-08-24T08:34:21;11.30;;;3.03;;
16775;SDS011;8505;49.456;8.164;2022-08-24T08:36:49;12.25;;;2.63;;
16775;SDS011;8505;49.456;8.164;2022-08-24T08:39:18;8.43;;;2.60;;
16775;SDS011;8505;49.456;8.164;2022-08-24T08:41:55;6.82;;;2.60;;
16775;SDS011;8505;49.456;8.164;2022-08-24T08:44:43;5.90;;;2.10;;
16775;SDS011;8505;49.456;8.164;2022-08-24T08:47:22;4.78;;;2.10;;
16775;SDS011;8505;49.456;8.164;2022-08-24T08:50:12;5.13;;;2.20;;
16775;SDS011;8505;49.456;8.164;2022-08-24T08:52:48;5.07;;;2.25;;
16775;SDS011;8505;49.456;8.164;2022-08-24T08:55:35;5.55;;;2.47;;
16775;SDS011;8505;49.456;8.164;2022-08-24T08:58:12;7.07;;;2.15;;
16775;SDS011;8505;49.456;8.164;2022-08-24T09:00:54;4.97;;;2.53;;
16775;SDS011;8505;49.456;8.164;2022-08-24T09:03:32;7.40;;;2.30;;
16775;SDS011;8505;49.456;8.164;2022-08-24T09:06:15;4.65;;;2.28;;
16775;SDS011;8505;49.456;8.164;2022-08-24T09:09:06;4.55;;;2.20;;
16775;SDS011;8505;49.456;8.164;2022-08-24T09:11:54;6.55;;;2.40;;
16775;SDS011;8505;49.456;8.164;2022-08-24T09:14:39;6.60;;;2.10;;
16775;SDS011;8505;49.456;8.164;2022-08-24T09:17:22;7.00;;;2.28;;
16775;SDS011;8505;49.456;8.164;2022-08-24T09:20:08;6.05;;;2.30;;
16775;SDS011;8505;49.456;8.164;2022-08-24T09:22:59;5.45;;;2.08;;
16775;SDS011;8505;49.456;8.164;2022-08-24T09:25:36;5.07;;;2.30;;
16775;SDS011;8505;49.456;8.164;2022-08-24T09:28:15;5.60;;;2.35;;
16775;SDS011;8505;49.456;8.164;2022-08-24T09:31:23;4.18;;;2.05;;
16775;SDS011;8505;49.456;8.164;2022-08-24T09:34:07;6.20;;;2.30;;
16775;SDS011;8505;49.456;8.164;2022-08-24T09:36:46;8.23;;;2.38;;
16775;SDS011;8505;49.456;8.164;2022-08-24T09:39:26;5.97;;;2.30;;
16775;SDS011;8505;49.456;8.164;2022-08-24T09:42:21;6.45;;;2.40;;
16775;SDS011;8505;49.456;8.164;2022-08-24T09:45:27;6.22;;;2.28;;
16775;SDS011;8505;49.456;8.164;2022-08-24T09:48:37;6.03;;;2.22;;
16775;SDS011;8505;49.456;8.164;2022-08-24T09:51:24;5.70;;;2.20;;
16775;SDS011;8505;49.456;8.164;2022-08-24T09:54:27;5.03;;;1.95;;
16775;SDS011;8505;49.456;8.164;2022-08-24T09:57:23;4.35;;;2.22;;
16775;SDS011;8505;49.456;8.164;2022-08-24T10:00:26;4.57;;;2.03;;
16775;SDS011;8505;49.456;8.164;2022-08-24T10:02:58;7.55;;;2.30;;
16775;SDS011;8505;49.456;8.164;2022-08-24T10:05:51;4.88;;;1.90;;
16775;SDS011;8505;49.456;8.164;2022-08-24T10:08:31;3.10;;;2.00;;
16775;SDS011;8505;49.456;8.164;2022-08-24T10:11:08;3.92;;;2.10;;
16775;SDS011;8505;49.456;8.164;2022-08-24T10:13:42;4.85;;;2.03;;
16775;SDS011;8505;49.456;8.164;2022-08-24T10:16:23;5.00;;;2.33;;
16775;SDS011;8505;49.456;8.164;2022-08-24T10:19:04;8.45;;;2.22;;
16775;SDS011;8505;49.456;8.164;2022-08-24T10:21:46;3.10;;;1.88;;
16775;SDS011;8505;49.456;8.164;2022-08-24T10:24:29;4.53;;;2.03;;
16775;SDS011;8505;49.456;8.164;2022-08-24T10:27:07;5.28;;;2.08;;
16775;SDS011;8505;49.456;8.164;2022-08-24T10:29:53;6.18;;;2.00;;
16775;SDS011;8505;49.456;8.164;2022-08-24T10:32:54;5.85;;;1.98;;
16775;SDS011;8505;49.456;8.164;2022-08-24T10:35:31;7.72;;;2.30;;
16775;SDS011;8505;49.456;8.164;2022-08-24T10:38:13;5.18;;;2.03;;
16775;SDS011;8505;49.456;8.164;2022-08-24T10:41:14;9.07;;;2.33;;
16775;SDS011;8505;49.456;8.164;2022-08-24T10:47:00;11.13;;;2.22;;
16775;SDS011;8505;49.456;8.164;2022-08-24T10:52:52;4.38;;;2.03;;
16775;SDS011;8505;49.456;8.164;2022-08-24T10:55:33;4.50;;;1.83;;
16775;SDS011;8505;49.456;8.164;2022-08-24T10:58:10;7.75;;;1.90;;
16775;SDS011;8505;49.456;8.164;2022-08-24T11:01:11;4.18;;;1.85;;
16775;SDS011;8505;49.456;8.164;2022-08-24T11:03:46;6.57;;;1.70;;
16775;SDS011;8505;49.456;8.164;2022-08-24T11:06:17;4.95;;;1.90;;
16775;SDS011;8505;49.456;8.164;2022-08-24T11:08:52;4.63;;;1.90;;
16775;SDS011;8505;49.456;8.164;2022-08-24T11:11:24;8.93;;;2.17;;
16775;SDS011;8505;49.456;8.164;2022-08-24T11:13:54;4.00;;;1.80;;
16775;SDS011;8505;49.456;8.164;2022-08-24T11:16:26;4.00;;;1.88;;
16775;SDS011;8505;49.456;8.164;2022-08-24T11:18:58;4.38;;;1.88;;
16775;SDS011;8505;49.456;8.164;2022-08-24T11:21:31;4.40;;;1.95;;
16775;SDS011;8505;49.456;8.164;2022-08-24T11:24:04;7.40;;;2.10;;
16775;SDS011;8505;49.456;8.164;2022-08-24T11:26:46;4.20;;;2.05;;
16775;SDS011;8505;49.456;8.164;2022-08-24T11:29:20;8.57;;;2.00;;
16775;SDS011;8505;49.456;8.164;2022-08-24T11:31:52;5.50;;;2.10;;
16775;SDS011;8505;49.456;8.164;2022-08-24T11:34:29;7.10;;;2.13;;
16775;SDS011;8505;49.456;8.164;2022-08-24T11:36:59;5.10;;;2.13;;
16775;SDS011;8505;49.456;8.164;2022-08-24T11:39:28;5.22;;;2.13;;
16775;SDS011;8505;49.456;8.164;2022-08-24T11:42:04;7.70;;;2.20;;
16775;SDS011;8505;49.456;8.164;2022-08-24T11:44:42;9.48;;;2.20;;
16775;SDS011;8505;49.456;8.164;2022-08-24T11:47:24;6.93;;;2.15;;
16775;SDS011;8505;49.456;8.164;2022-08-24T11:50:06;8.15;;;1.92;;
16775;SDS011;8505;49.456;8.164;2022-08-24T11:52:46;13.85;;;2.40;;
16775;SDS011;8505;49.456;8.164;2022-08-24T11:55:26;10.07;;;2.53;;
16775;SDS011;8505;49.456;8.164;2022-08-24T11:58:15;6.55;;;2.15;;
16775;SDS011;8505;49.456;8.164;2022-08-24T12:00:52;6.50;;;2.00;;
16775;SDS011;8505;49.456;8.164;2022-08-24T12:03:26;3.83;;;2.10;;
16775;SDS011;8505;49.456;8.164;2022-08-24T12:06:07;6.35;;;1.95;;
16775;SDS011;8505;49.456;8.164;2022-08-24T12:08:45;6.97;;;2.28;;
16775;SDS011;8505;49.456;8.164;2022-08-24T12:11:22;8.65;;;2.40;;
16775;SDS011;8505;49.456;8.164;2022-08-24T12:14:01;4.15;;;2.20;;
16775;SDS011;8505;49.456;8.164;2022-08-24T12:16:34;6.38;;;2.08;;
16775;SDS011;8505;49.456;8.164;2022-08-24T12:19:10;5.97;;;2.25;;
16775;SDS011;8505;49.456;8.164;2022-08-24T12:21:44;5.68;;;1.98;;
16775;SDS011;8505;49.456;8.164;2022-08-24T12:24:15;4.78;;;2.45;;
16775;SDS011;8505;49.456;8.164;2022-08-24T12:26:49;3.15;;;1.98;;
16775;SDS011;8505;49.456;8.164;2022-08-24T12:29:24;4.00;;;2.50;;
16775;SDS011;8505;49.456;8.164;2022-08-24T12:31:56;5.55;;;2.20;;
16775;SDS011;8505;49.456;8.164;2022-08-24T12:34:26;5.10;;;2.20;;
16775;SDS011;8505;49.456;8.164;2022-08-24T12:37:00;3.83;;;2.10;;
16775;SDS011;8505;49.456;8.164;2022-08-24T12:39:43;4.65;;;2.22;;
16775;SDS011;8505;49.456;8.164;2022-08-24T12:42:15;6.88;;;2.45;;
16775;SDS011;8505;49.456;8.164;2022-08-24T12:44:49;3.55;;;1.77;;
16775;SDS011;8505;49.456;8.164;2022-08-24T12:47:23;5.53;;;2.35;;
16775;SDS011;8505;49.456;8.164;2022-08-24T12:49:56;3.60;;;2.10;;
16775;SDS011;8505;49.456;8.164;2022-08-24T12:52:42;3.85;;;2.00;;
16775;SDS011;8505;49.456;8.164;2022-08-24T12:55:30;7.65;;;2.10;;
16775;SDS011;8505;49.456;8.164;2022-08-24T12:58:26;5.07;;;2.25;;
16775;SDS011;8505;49.456;8.164;2022-08-24T13:01:21;4.90;;;2.40;;
16775;SDS011;8505;49.456;8.164;2022-08-24T13:04:03;5.07;;;2.08;;
16775;SDS011;8505;49.456;8.164;2022-08-24T13:06:39;3.97;;;2.13;;
16775;SDS011;8505;49.456;8.164;2022-08-24T13:09:13;4.60;;;2.13;;
16775;SDS011;8505;49.456;8.164;2022-08-24T13:11:54;5.88;;;2.10;;
16775;SDS011;8505;49.456;8.164;2022-08-24T13:14:24;5.28;;;2.17;;
16775;SDS011;8505;49.456;8.164;2022-08-24T13:17:08;5.70;;;2.20;;
16775;SDS011;8505;49.456;8.164;2022-08-24T13:19:40;5.57;;;2.10;;
16775;SDS011;8505;49.456;8.164;2022-08-24T13:37:11;4.63;;;2.15;;
16775;SDS011;8505;49.456;8.164;2022-08-24T13:39:57;4.07;;;2.17;;
16775;SDS011;8505;49.456;8.164;2022-08-24T13:42:50;5.47;;;2.03;;
16775;SDS011;8505;49.456;8.164;2022-08-24T13:45:34;3.45;;;1.80;;
16775;SDS011;8505;49.456;8.164;2022-08-24T13:48:11;5.28;;;2.00;;
16775;SDS011;8505;49.456;8.164;2022-08-24T13:50:50;4.75;;;2.13;;
16775;SDS011;8505;49.456;8.164;2022-08-24T13:53:42;5.25;;;1.80;;
16775;SDS011;8505;49.456;8.164;2022-08-24T13:56:31;4.38;;;2.10;;
16775;SDS011;8505;49.456;8.164;2022-08-24T13:59:12;4.32;;;1.95;;
16775;SDS011;8505;49.456;8.164;2022-08-24T14:01:59;7.43;;;2.03;;
16775;SDS011;8505;49.456;8.164;2022-08-24T14:04:34;6.93;;;2.05;;
16775;SDS011;8505;49.456;8.164;2022-08-24T14:07:12;5.88;;;2.03;;
16775;SDS011;8505;49.456;8.164;2022-08-24T14:09:46;3.08;;;1.88;;
16775;SDS011;8505;49.456;8.164;2022-08-24T14:12:34;8.52;;;2.20;;
16775;SDS011;8505;49.456;8.164;2022-08-24T14:15:21;4.80;;;1.70;;
16775;SDS011;8505;49.456;8.164;2022-08-24T14:17:56;6.45;;;1.90;;
16775;SDS011;8505;49.456;8.164;2022-08-24T14:23:28;5.35;;;1.90;;
16775;SDS011;8505;49.456;8.164;2022-08-24T14:29:30;5.70;;;1.95;;
16775;SDS011;8505;49.456;8.164;2022-08-24T14:34:56;5.13;;;1.90;;
16775;SDS011;8505;49.456;8.164;2022-08-24T14:37:32;5.07;;;2.13;;
16775;SDS011;8505;49.456;8.164;2022-08-24T14:40:11;4.45;;;2.03;;
16775;SDS011;8505;49.456;8.164;2022-08-24T14:42:51;4.38;;;1.70;;
16775;SDS011;8505;49.456;8.164;2022-08-24T14:45:25;4.05;;;2.08;;
16775;SDS011;8505;49.456;8.164;2022-08-24T14:48:09;4.30;;;1.80;;
16775;SDS011;8505;49.456;8.164;2022-08-24T14:50:47;3.42;;;1.88;;
16775;SDS011;8505;49.456;8.164;2022-08-24T14:53:31;4.55;;;1.60;;
16775;SDS011;8505;49.456;8.164;2022-08-24T14:56:20;3.55;;;1.77;;
16775;SDS011;8505;49.456;8.164;2022-08-24T14:59:05;3.15;;;1.80;;
16775;SDS011;8505;49.456;8.164;2022-08-24T15:01:40;4.18;;;1.92;;
16775;SDS011;8505;49.456;8.164;2022-08-24T15:07:20;3.65;;;1.55;;
16775;SDS011;8505;49.456;8.164;2022-08-24T15:09:51;5.78;;;2.03;;
16775;SDS011;8505;49.456;8.164;2022-08-24T15:12:36;4.32;;;1.90;;
16775;SDS011;8505;49.456;8.164;2022-08-24T15:15:10;4.40;;;1.90;;
16775;SDS011;8505;49.456;8.164;2022-08-24T15:17:47;3.60;;;2.00;;
16775;SDS011;8505;49.456;8.164;2022-08-24T15:20:28;2.95;;;1.92;;
16775;SDS011;8505;49.456;8.164;2022-08-24T15:23:08;3.25;;;1.67;;
16775;SDS011;8505;49.456;8.164;2022-08-24T15:25:41;3.05;;;1.70;;
16775;SDS011;8505;49.456;8.164;2022-08-24T15:28:23;3.35;;;2.00;;
16775;SDS011;8505;49.456;8.164;2022-08-24T15:30:54;5.82;;;1.63;;
16775;SDS011;8505;49.456;8.164;2022-08-24T15:33:25;5.85;;;1.80;;
16775;SDS011;8505;49.456;8.164;2022-08-24T15:36:05;3.20;;;1.80;;
16775;SDS011;8505;49.456;8.164;2022-08-24T15:38:35;3.42;;;1.73;;
16775;SDS011;8505;49.456;8.164;2022-08-24T15:41:06;2.80;;;1.50;;
16775;SDS011;8505;49.456;8.164;2022-08-24T15:43:41;3.22;;;1.95;;
16775;SDS011;8505;49.456;8.164;2022-08-24T15:46:12;2.97;;;1.65;;
16775;SDS011;8505;49.456;8.164;2022-08-24T15:48:44;3.05;;;1.77;;
16775;SDS011;8505;49.456;8.164;2022-08-24T15:51:17;3.67;;;1.80;;
16775;SDS011;8505;49.456;8.164;2022-08-24T15:53:59;3.05;;;1.70;;
16775;SDS011;8505;49.456;8.164;2022-08-24T15:56:48;5.20;;;1.75;;
16775;SDS011;8505;49.456;8.164;2022-08-24T15:59:24;2.90;;;1.58;;
16775;SDS011;8505;49.456;8.164;2022-08-24T16:01:57;6.18;;;1.80;;
16775;SDS011;8505;49.456;8.164;2022-08-24T16:04:58;3.30;;;1.80;;
16775;SDS011;8505;49.456;8.164;2022-08-24T16:10:37;4.53;;;1.80;;
16775;SDS011;8505;49.456;8.164;2022-08-24T16:13:09;3.03;;;1.60;;
16775;SDS011;8505;49.456;8.164;2022-08-24T16:15:45;4.82;;;1.70;;
16775;SDS011;8505;49.456;8.164;2022-08-24T16:18:15;3.75;;;2.00;;
16775;SDS011;8505;49.456;8.164;2022-08-24T16:20:45;3.55;;;1.83;;